Time;durP1;ratioP1;P1;durP2;ratioP2;P2;SDS_P1;SDS_P2;PMS_P1;PMS_P2;Temp;Humidity;BMP_temperature;BMP_pressure;BME280_temperature;BME280_humidity;BME280_pressure;Samples;Min_cycle;Max_cycle;Signal;HPM_P1;HPM_P2
2023/10/21 00:02:43;;;;;;;1.10;1.10;;;;;;;17.45;57.65;96186.13;6935437;28;20597;-79
2023/10/21 00:06:05;;;;;;;0.90;0.90;;;;;;;17.21;58.68;96201.94;6940305;28;20225;-81
2023/10/21 00:09:26;;;;;;;1.43;1.30;;;;;;;17.47;58.30;96225.53;6939789;28;20210;-81
2023/10/21 00:12:48;;;;;;;1.40;1.30;;;;;;;17.69;57.69;96241.06;6931311;28;20251;-81
2023/10/21 00:16:11;;;;;;;1.30;1.20;;;;;;;17.31;58.62;96240.63;6920488;28;20225;-80
2023/10/21 00:19:34;;;;;;;1.90;1.27;;;;;;;17.09;59.53;96258.84;6918754;28;20230;-80
2023/10/21 00:22:55;;;;;;;1.60;1.20;;;;;;;17.16;59.36;96253.78;6917067;28;20292;-80
2023/10/21 00:26:17;;;;;;;1.30;1.30;;;;;;;16.80;60.83;96275.56;6919156;28;20320;-80
2023/10/21 00:29:39;;;;;;;1.50;1.40;;;;;;;16.86;60.23;96262.66;6919591;28;20611;-81
2023/10/21 00:33:03;;;;;;;2.40;1.07;;;;;;;16.72;61.06;96276.28;6919125;28;20296;-80
2023/10/21 00:36:25;;;;;;;2.37;1.37;;;;;;;16.77;60.93;96276.19;6917537;28;20732;-80
2023/10/21 00:39:47;;;;;;;4.13;1.47;;;;;;;16.89;60.61;96273.72;6916659;28;20303;-80
2023/10/21 00:43:08;;;;;;;3.17;1.63;;;;;;;16.91;60.36;96287.81;6915008;28;20212;-80
2023/10/21 00:46:30;;;;;;;1.90;1.30;;;;;;;16.86;60.41;96289.88;6917204;28;20225;-80
2023/10/21 00:49:53;;;;;;;1.30;1.30;;;;;;;16.76;60.96;96285.44;6929503;28;20193;-80
2023/10/21 00:53:14;;;;;;;1.30;1.30;;;;;;;16.49;61.02;96282.75;6930767;28;20218;-80
2023/10/21 00:56:36;;;;;;;1.60;1.50;;;;;;;16.69;61.14;96303.28;6933917;28;20253;-81
2023/10/21 00:59:58;;;;;;;1.97;1.33;;;;;;;16.72;60.62;96305.38;6935175;28;20224;-80
2023/10/21 01:03:19;;;;;;;3.20;1.40;;;;;;;16.52;61.14;96311.25;6932784;28;20212;-80
2023/10/21 01:06:43;;;;;;;2.23;1.87;;;;;;;16.40;61.82;96308.25;6935780;28;20245;-80
2023/10/21 01:10:07;;;;;;;1.70;1.07;;;;;;;16.59;61.42;96319.81;6926720;28;20209;-81
2023/10/21 01:13:29;;;;;;;1.40;1.10;;;;;;;16.60;61.62;96311.38;6920852;28;20611;-81
2023/10/21 01:16:50;;;;;;;1.83;1.40;;;;;;;16.55;61.90;96316.09;6918154;28;20262;-79
2023/10/21 01:20:12;;;;;;;1.27;1.27;;;;;;;16.30;62.20;96302.97;6925311;28;20238;-79
2023/10/21 01:23:35;;;;;;;1.57;1.47;;;;;;;16.61;61.02;96321.13;6933312;28;20205;-80
2023/10/21 01:26:56;;;;;;;1.10;1.10;;;;;;;16.49;61.81;96336.31;6933591;28;20228;-79
2023/10/21 01:30:18;;;;;;;3.40;1.23;;;;;;;16.73;60.60;96326.88;6934089;28;20216;-80
2023/10/21 01:33:39;;;;;;;1.63;1.53;;;;;;;16.60;60.73;96318.69;6922186;28;20201;-81
2023/10/21 01:37:01;;;;;;;1.30;1.30;;;;;;;16.86;60.16;96336.13;6917999;28;20288;-80
2023/10/21 01:40:24;;;;;;;1.10;1.10;;;;;;;17.21;59.07;96347.03;6913825;28;20246;-80
2023/10/21 01:43:45;;;;;;;1.90;1.20;;;;;;;17.65;57.31;96344.41;6921470;28;20248;-80
2023/10/21 01:47:07;;;;;;;1.60;1.50;;;;;;;17.70;57.12;96354.38;6927925;28;20274;-80
2023/10/21 01:50:28;;;;;;;1.00;1.00;;;;;;;17.60;57.41;96360.88;6926536;28;20239;-80
2023/10/21 01:53:50;;;;;;;1.00;1.00;;;;;;;17.88;56.85;96386.09;6926428;28;20225;-80
2023/10/21 01:57:13;;;;;;;1.33;1.20;;;;;;;18.36;55.42;96407.00;6922925;28;20860;-80
2023/10/21 02:00:34;;;;;;;2.90;0.93;;;;;;;18.26;55.20;96388.13;6919513;28;20324;-80
2023/10/21 02:03:56;;;;;;;1.20;1.10;;;;;;;18.16;55.68;96401.22;6917865;28;20293;-81
2023/10/21 02:07:17;;;;;;;2.20;1.20;;;;;;;18.50;54.75;96407.72;6933918;28;20723;-80
2023/10/21 02:10:40;;;;;;;1.17;1.10;;;;;;;18.33;55.33;96426.72;6929306;28;20239;-80
2023/10/21 02:14:03;;;;;;;1.00;1.00;;;;;;;18.07;56.13;96422.16;6927566;28;20213;-81
2023/10/21 02:17:25;;;;;;;0.93;0.93;;;;;;;18.21;55.79;96407.34;6920208;28;20226;-80
2023/10/21 02:20:46;;;;;;;0.93;0.90;;;;;;;18.58;54.91;96445.13;6922499;28;20702;-80
2023/10/21 02:24:08;;;;;;;2.07;1.60;;;;;;;18.45;55.28;96432.41;6924114;28;20206;-80
2023/10/21 02:27:30;;;;;;;3.67;1.30;;;;;;;18.83;54.31;96435.47;6925478;28;20311;-80
2023/10/21 02:30:52;;;;;;;1.97;1.60;;;;;;;18.56;54.92;96450.13;6924759;28;20197;-80
2023/10/21 02:34:14;;;;;;;1.00;1.00;;;;;;;18.43;55.25;96431.09;6925814;28;20666;-80
2023/10/21 02:37:35;;;;;;;1.23;0.93;;;;;;;18.21;55.63;96455.66;6924178;28;20332;-80
2023/10/21 02:40:57;;;;;;;0.90;0.90;;;;;;;18.42;54.99;96463.03;6925569;28;20252;-80
2023/10/21 02:44:18;;;;;;;0.97;0.97;;;;;;;18.62;54.55;96475.34;6925631;28;20238;-80
2023/10/21 02:47:42;;;;;;;0.80;0.80;;;;;;;18.38;54.89;96470.22;6925161;28;20235;-80
2023/10/21 02:51:09;;;;;;;1.90;1.10;;;;;;;18.13;55.06;96470.00;6925908;28;20294;-81
2023/10/21 02:54:31;;;;;;;1.50;1.10;;;;;;;18.66;53.85;96490.81;6924102;28;20259;-80
2023/10/21 02:57:53;;;;;;;0.90;0.90;;;;;;;18.99;52.84;96492.09;6924311;28;20242;-80
2023/10/21 03:01:15;;;;;;;1.03;1.00;;;;;;;18.40;53.96;96481.63;6924270;28;20289;-80
2023/10/21 03:04:38;;;;;;;1.03;1.03;;;;;;;18.50;53.49;96466.91;6924594;28;20335;-80
2023/10/21 03:08:00;;;;;;;1.27;0.90;;;;;;;18.49;53.60;96498.06;6924013;28;20319;-80
2023/10/21 03:11:23;;;;;;;2.00;1.00;;;;;;;18.53;53.84;96501.78;6924661;28;20278;-81
2023/10/21 03:14:45;;;;;;;0.80;0.80;;;;;;;18.53;53.57;96518.16;6924230;28;20212;-80
2023/10/21 03:18:06;;;;;;;0.80;0.80;;;;;;;18.75;53.13;96521.66;6923071;28;20263;-80
2023/10/21 03:21:29;;;;;;;0.80;0.80;;;;;;;18.89;52.46;96527.88;6924657;28;20203;-80
2023/10/21 03:24:51;;;;;;;0.50;0.50;;;;;;;18.82;52.42;96538.41;6924739;28;20285;-80
2023/10/21 03:28:12;;;;;;;0.80;0.80;;;;;;;18.95;51.82;96523.91;6915264;28;20213;-80
2023/10/21 03:31:34;;;;;;;0.83;0.70;;;;;;;19.15;51.58;96544.38;6898345;28;20309;-81
2023/10/21 03:34:55;;;;;;;1.00;0.77;;;;;;;19.17;51.56;96539.44;6897822;28;20335;-80
2023/10/21 03:38:18;;;;;;;1.43;0.90;;;;;;;18.83;52.29;96529.13;6897139;28;20324;-80
2023/10/21 03:41:40;;;;;;;1.27;0.60;;;;;;;18.62;52.38;96530.75;6897123;28;20302;-80
2023/10/21 03:45:01;;;;;;;2.93;2.63;;;;;;;19.11;51.19;96546.94;6909964;28;20761;-80
2023/10/21 03:48:23;;;;;;;1.23;1.20;;;;;;;19.14;50.86;96568.16;6922431;28;20227;-81
2023/10/21 03:51:45;;;;;;;0.80;0.80;;;;;;;18.82;51.38;96548.53;6922708;28;20282;-80
2023/10/21 03:55:09;;;;;;;0.97;0.97;;;;;;;19.02;51.67;96561.66;6919815;28;20209;-80
2023/10/21 03:58:31;;;;;;;1.70;1.07;;;;;;;18.43;52.75;96567.50;6921532;28;20230;-80
2023/10/21 04:01:52;;;;;;;1.00;0.90;;;;;;;18.88;51.82;96563.69;6922464;28;20254;-81
2023/10/21 04:05:14;;;;;;;1.40;0.77;;;;;;;19.02;51.07;96586.25;6924336;28;20254;-80
2023/10/21 04:08:38;;;;;;;0.80;0.77;;;;;;;19.01;51.16;96565.50;6924632;28;20202;-80
2023/10/21 04:12:00;;;;;;;1.77;0.80;;;;;;;19.01;51.35;96573.72;6925368;28;20239;-80
2023/10/21 04:15:22;;;;;;;0.87;0.87;;;;;;;19.15;51.01;96591.63;6923137;28;20670;-80
2023/10/21 04:18:44;;;;;;;0.70;0.70;;;;;;;19.08;50.47;96557.69;6922915;28;20231;-80
2023/10/21 04:22:06;;;;;;;1.00;1.00;;;;;;;19.37;50.15;96588.06;6923217;28;20200;-80
2023/10/21 04:25:28;;;;;;;0.97;0.80;;;;;;;19.07;50.31;96584.19;6923917;28;20222;-80
2023/10/21 04:28:51;;;;;;;0.90;0.90;;;;;;;19.25;50.62;96601.50;6926364;28;20211;-80
2023/10/21 04:32:12;;;;;;;2.13;1.40;;;;;;;18.91;51.18;96584.88;6924126;28;20215;-81
2023/10/21 04:35:34;;;;;;;3.13;1.10;;;;;;;19.18;51.08;96607.41;6921076;28;20214;-80
2023/10/21 04:38:55;;;;;;;1.50;0.90;;;;;;;18.88;51.69;96618.28;6925030;28;20717;-80
2023/10/21 04:42:17;;;;;;;0.70;0.70;;;;;;;19.35;50.66;96629.38;6924380;28;20596;-80
2023/10/21 04:45:40;;;;;;;0.60;0.60;;;;;;;19.62;50.40;96642.03;6923930;28;20234;-80
2023/10/21 04:49:02;;;;;;;1.00;0.90;;;;;;;19.48;50.24;96638.59;6925176;28;20235;-80
2023/10/21 04:52:23;;;;;;;0.63;0.60;;;;;;;19.38;50.82;96638.88;6923785;28;20776;-80
2023/10/21 04:55:45;;;;;;;1.27;1.03;;;;;;;19.44;50.04;96626.69;6925122;28;20287;-80
2023/10/21 04:59:06;;;;;;;2.67;1.00;;;;;;;19.53;50.15;96646.69;6925337;28;20238;-80
2023/10/21 05:02:29;;;;;;;1.13;1.10;;;;;;;19.43;50.45;96666.88;6922089;28;20294;-81
2023/10/21 05:05:51;;;;;;;6.93;2.97;;;;;;;19.35;50.39;96645.75;6921480;28;20278;-81
2023/10/21 05:09:12;;;;;;;1.50;1.40;;;;;;;19.07;51.18;96665.31;6923491;28;20310;-80
2023/10/21 05:12:34;;;;;;;0.90;0.90;;;;;;;19.31;50.75;96683.06;6919991;28;20218;-80
2023/10/21 05:15:56;;;;;;;1.63;1.20;;;;;;;19.36;50.85;96682.09;6921778;28;20309;-80
2023/10/21 05:19:19;;;;;;;2.63;1.50;;;;;;;19.43;50.72;96690.66;6922431;28;20266;-80
2023/10/21 05:22:40;;;;;;;2.87;1.47;;;;;;;19.17;51.48;96700.59;6921191;28;20312;-81
2023/10/21 05:26:02;;;;;;;4.33;2.40;;;;;;;18.99;52.01;96712.50;6922109;28;20222;-80
2023/10/21 05:29:23;;;;;;;1.80;1.70;;;;;;;18.88;52.65;96711.13;6922555;28;20661;-80
2023/10/21 05:32:44;;;;;;;1.63;1.10;;;;;;;18.92;52.72;96728.50;6921366;28;20351;-80
2023/10/21 05:36:08;;;;;;;2.00;1.27;;;;;;;19.06;52.19;96738.28;6923535;28;20250;-80
2023/10/21 05:39:29;;;;;;;1.30;1.20;;;;;;;19.04;52.45;96742.44;6923200;28;20700;-80
2023/10/21 05:42:51;;;;;;;0.80;0.80;;;;;;;18.85;52.32;96736.28;6921108;28;20300;-80
2023/10/21 05:46:12;;;;;;;1.50;0.90;;;;;;;18.41;53.92;96744.38;6915501;28;20249;-80
2023/10/21 05:49:34;;;;;;;1.43;0.90;;;;;;;18.36;53.95;96749.91;6922599;28;20278;-80
2023/10/21 05:52:57;;;;;;;1.90;1.43;;;;;;;19.04;52.63;96767.00;6944759;28;20244;-81
2023/10/21 05:56:18;;;;;;;4.93;3.87;;;;;;;18.86;52.92;96770.69;6936073;28;20246;-80
2023/10/21 05:59:40;;;;;;;5.83;3.37;;;;;;;18.88;52.53;96760.25;6916315;28;20325;-80
2023/10/21 06:03:01;;;;;;;1.00;1.00;;;;;;;18.46;53.42;96745.06;6923199;28;20296;-80
2023/10/21 06:06:23;;;;;;;1.73;1.10;;;;;;;18.78;53.36;96791.34;6923290;28;20270;-80
2023/10/21 06:09:46;;;;;;;1.10;1.00;;;;;;;18.89;53.10;96805.56;6934664;28;20199;-81
2023/10/21 06:13:07;;;;;;;1.03;1.03;;;;;;;18.65;53.55;96816.72;6936382;28;20202;-82
2023/10/21 06:16:29;;;;;;;1.10;1.10;;;;;;;18.75;53.46;96818.44;6936625;28;20515;-77
2023/10/21 06:19:50;;;;;;;1.17;1.07;;;;;;;18.38;54.22;96830.34;6922029;28;20227;-80
2023/10/21 06:23:12;;;;;;;0.90;0.90;;;;;;;18.72;53.35;96838.97;6912134;28;20238;-80
2023/10/21 06:26:36;;;;;;;0.80;0.80;;;;;;;18.65;53.32;96835.84;6916267;28;20261;-81
2023/10/21 06:29:57;;;;;;;1.43;1.07;;;;;;;19.14;52.10;96854.16;6917177;28;20741;-80
2023/10/21 06:33:19;;;;;;;1.50;1.10;;;;;;;19.23;51.84;96861.38;6919993;28;20288;-80
2023/10/21 06:36:40;;;;;;;1.07;1.07;;;;;;;19.32;51.63;96856.81;6922914;28;20309;-80
2023/10/21 06:40:02;;;;;;;1.37;1.00;;;;;;;19.10;51.80;96848.50;6921336;28;20773;-80
2023/10/21 06:43:25;;;;;;;1.17;1.10;;;;;;;19.53;51.05;96887.22;6918532;28;20211;-80
2023/10/21 06:46:46;;;;;;;3.20;1.03;;;;;;;19.29;51.59;96860.13;6918052;28;20358;-80
2023/10/21 06:50:09;;;;;;;2.70;1.10;;;;;;;19.18;52.01;96877.03;6919824;28;20214;-81
2023/10/21 06:53:30;;;;;;;1.10;1.10;;;;;;;19.10;52.73;96883.22;6919870;28;20208;-81
2023/10/21 06:56:52;;;;;;;2.37;1.40;;;;;;;18.68;53.43;96902.63;6925495;28;20779;-80
2023/10/21 07:00:16;;;;;;;1.63;1.50;;;;;;;19.00;53.06;96905.28;6910336;28;21650;-80
2023/10/21 07:03:37;;;;;;;2.17;1.43;;;;;;;19.18;52.33;96912.56;6920778;28;20224;-79
2023/10/21 07:06:59;;;;;;;1.60;1.30;;;;;;;18.84;53.08;96928.53;6921140;28;20317;-79
2023/10/21 07:10:23;;;;;;;2.03;1.40;;;;;;;19.40;52.00;96935.31;6908909;28;20253;-77
2023/10/21 07:13:46;;;;;;;1.03;1.03;;;;;;;19.90;50.19;96931.44;6918111;28;20210;-80
2023/10/21 07:17:09;;;;;;;1.10;1.10;;;;;;;20.08;49.89;96946.09;6919458;28;20238;-80
2023/10/21 07:20:31;;;;;;;1.80;1.70;;;;;;;20.62;47.88;96943.06;6920860;28;20231;-79
2023/10/21 07:23:52;;;;;;;3.17;2.77;;;;;;;20.88;47.25;96952.25;6920880;28;20294;-80
2023/10/21 07:27:14;;;;;;;2.07;1.93;;;;;;;20.73;47.06;96961.69;6923047;28;20310;-80
2023/10/21 07:30:36;;;;;;;3.10;0.80;;;;;;;21.07;46.78;96959.13;6921175;28;20670;-80
2023/10/21 07:33:58;;;;;;;1.03;0.83;;;;;;;21.08;46.74;96968.16;6916898;28;20208;-79
2023/10/21 07:37:20;;;;;;;0.70;0.70;;;;;;;21.38;45.74;96960.69;6918631;28;20444;-80
2023/10/21 07:40:43;;;;;;;1.17;1.03;;;;;;;21.50;45.31;96973.78;6918130;28;20310;-80
2023/10/21 07:44:05;;;;;;;1.60;0.80;;;;;;;20.50;47.49;96972.94;6917750;28;20204;-80
2023/10/21 07:47:26;;;;;;;2.57;1.20;;;;;;;20.59;47.75;96999.28;6916631;28;20833;-80
2023/10/21 07:50:54;;;;;;;1.10;1.10;;;;;;;21.16;45.85;97013.97;6900373;28;20208;-80
2023/10/21 07:54:16;;;;;;;2.47;2.27;;;;;;;21.50;44.82;97002.03;6916318;28;20204;-80
2023/10/21 07:57:38;;;;;;;4.40;3.43;;;;;;;21.89;43.84;97012.94;6920857;28;20233;-80
2023/10/21 08:01:00;;;;;;;1.00;0.90;;;;;;;22.23;42.95;97015.72;6920385;28;20225;-79
2023/10/21 08:04:21;;;;;;;1.47;1.30;;;;;;;23.41;40.48;97027.69;6914913;28;20220;-80
2023/10/21 08:07:44;;;;;;;2.43;1.53;;;;;;;23.83;39.39;97034.91;6921786;28;20232;-81
2023/10/21 08:11:06;;;;;;;1.43;1.23;;;;;;;22.91;39.39;97026.69;6921652;28;20227;-80
2023/10/21 08:14:30;;;;;;;1.33;1.00;;;;;;;24.56;37.46;97003.97;6922578;28;20224;-80
2023/10/21 08:17:51;;;;;;;1.67;1.40;;;;;;;24.94;36.58;97032.16;6924001;28;20824;-80
2023/10/21 08:21:13;;;;;;;1.43;0.70;;;;;;;25.38;35.46;97036.91;6923121;28;20585;-80
2023/10/21 08:24:36;;;;;;;1.27;0.80;;;;;;;26.42;33.21;97027.66;6919353;28;20742;-79
2023/10/21 08:27:58;;;;;;;0.50;0.50;;;;;;;26.63;34.15;97041.34;6909920;28;20370;-80
2023/10/21 08:31:19;;;;;;;2.33;2.13;;;;;;;27.19;32.71;97040.22;6922618;28;20242;-81
2023/10/21 08:34:41;;;;;;;0.47;0.47;;;;;;;26.09;33.70;97051.91;6927662;28;20210;-81
2023/10/21 08:38:03;;;;;;;0.97;0.83;;;;;;;26.54;33.44;97041.47;6927097;28;20219;-82
2023/10/21 08:41:34;;;;;;;1.00;1.00;;;;;;;26.89;31.54;96986.41;6923673;28;20252;-79
2023/10/21 08:44:59;;;;;;;0.63;0.63;;;;;;;27.71;31.50;97072.03;6891251;28;20242;-78
2023/10/21 08:48:21;;;;;;;2.00;0.97;;;;;;;26.77;32.09;97066.66;6914995;28;20330;-79
2023/10/21 08:51:44;;;;;;;0.60;0.47;;;;;;;27.33;30.98;97088.44;6912464;28;20294;-78
2023/10/21 08:55:06;;;;;;;0.90;0.83;;;;;;;26.11;33.10;97091.03;6908795;28;20683;-78
2023/10/21 08:58:29;;;;;;;0.83;0.83;;;;;;;25.20;34.87;97101.63;6913247;28;20790;-78
2023/10/21 09:01:51;;;;;;;1.73;0.80;;;;;;;23.83;36.76;97109.22;6923205;28;20695;-78
2023/10/21 09:05:13;;;;;;;0.90;0.90;;;;;;;23.58;38.74;97115.66;6918357;28;20211;-77
2023/10/21 09:08:35;;;;;;;0.80;0.67;;;;;;;23.70;38.81;97115.78;6915906;28;20843;-78
2023/10/21 09:12:04;;;;;;;1.67;1.13;;;;;;;23.86;38.47;97114.09;6912387;28;20576;-78
2023/10/21 09:15:36;;;;;;;0.73;0.70;;;;;;;23.06;39.49;97124.34;6916758;28;20667;-78
2023/10/21 09:19:00;;;;;;;2.33;1.57;;;;;;;22.76;39.81;97126.13;6915043;28;20755;-79
2023/10/21 09:22:23;;;;;;;1.50;0.80;;;;;;;21.96;41.03;97127.72;6912504;28;20723;-79
2023/10/21 09:25:49;;;;;;;2.93;1.00;;;;;;;21.74;41.87;97152.50;6934948;28;20249;-78
2023/10/21 09:29:12;;;;;;;1.00;0.90;;;;;;;22.08;41.01;97142.44;6938719;28;20218;-78
2023/10/21 09:32:35;;;;;;;1.00;0.70;;;;;;;21.56;41.83;97151.59;6938459;28;20207;-78
2023/10/21 09:36:04;;;;;;;0.97;0.90;;;;;;;21.76;41.23;97159.28;6932570;28;22465;-79
2023/10/21 09:39:28;;;;;;;1.07;0.93;;;;;;;21.71;41.23;97148.44;6914278;28;20693;-79
2023/10/21 09:42:52;;;;;;;2.03;1.10;;;;;;;21.41;42.03;97162.94;6913526;28;20203;-78
2023/10/21 09:46:14;;;;;;;0.93;0.93;;;;;;;21.13;42.82;97168.06;6914090;28;20228;-78
2023/10/21 09:49:38;;;;;;;1.90;1.30;;;;;;;22.36;40.91;97159.50;6890212;28;20213;-81
2023/10/21 09:53:03;;;;;;;0.97;0.90;;;;;;;22.88;40.36;97175.75;6916692;28;20206;-80
2023/10/21 09:56:26;;;;;;;1.43;0.60;;;;;;;22.46;39.88;97164.69;6918367;28;20677;-80
2023/10/21 09:59:47;;;;;;;2.13;1.10;;;;;;;22.01;40.78;97172.28;6918977;28;20255;-80
2023/10/21 10:03:09;;;;;;;1.07;0.97;;;;;;;22.67;40.95;97158.25;6917849;28;20358;-80
2023/10/21 10:06:32;;;;;;;2.97;1.67;;;;;;;22.61;40.28;97178.78;6912989;28;20262;-80
2023/10/21 10:09:54;;;;;;;8.93;3.97;;;;;;;23.19;38.80;97150.88;6944796;28;20244;-80
2023/10/21 10:13:16;;;;;;;10.93;4.00;;;;;;;22.91;39.06;97172.34;6919968;28;20333;-80
2023/10/21 10:16:41;;;;;;;1.60;1.20;;;;;;;23.11;39.66;97155.19;6933427;28;20304;-80
2023/10/21 10:20:18;;;;;;;1.37;0.80;;;;;;;22.71;39.74;97155.69;6921412;28;20597;-80
2023/10/21 10:23:48;;;;;;;0.90;0.87;;;;;;;22.72;38.97;97132.59;6920386;28;20271;-80
2023/10/21 10:27:11;;;;;;;0.90;0.70;;;;;;;22.83;38.66;97156.66;6921717;28;20222;-81
2023/10/21 10:30:33;;;;;;;0.90;0.90;;;;;;;22.61;38.96;97145.81;6919998;28;20231;-81
2023/10/21 10:33:55;;;;;;;1.37;0.80;;;;;;;22.67;38.98;97172.00;6918534;28;20811;-80
2023/10/21 10:37:26;;;;;;;1.00;0.90;;;;;;;22.57;38.76;97152.28;6916893;28;20234;-79
2023/10/21 10:40:50;;;;;;;1.13;1.00;;;;;;;22.92;39.18;97170.41;6920283;28;20279;-79
2023/10/21 10:44:11;;;;;;;4.10;1.07;;;;;;;23.27;37.46;97156.34;6913887;28;20259;-79
2023/10/21 10:47:33;;;;;;;2.57;0.90;;;;;;;22.73;38.34;97150.69;6921846;28;20320;-81
2023/10/21 10:50:57;;;;;;;0.93;0.90;;;;;;;22.58;39.48;97156.63;6921790;28;20617;-78
2023/10/21 10:54:19;;;;;;;1.03;0.90;;;;;;;22.36;39.77;97141.06;6914393;28;20319;-80
2023/10/21 10:57:43;;;;;;;0.97;0.90;;;;;;;22.70;39.29;97129.34;6901741;28;20231;-80
2023/10/21 11:01:07;;;;;;;1.07;0.80;;;;;;;23.50;38.25;97157.75;6918764;28;20261;-79
2023/10/21 11:04:30;;;;;;;1.20;0.90;;;;;;;24.19;36.17;97133.56;6922340;28;20215;-80
2023/10/21 11:07:52;;;;;;;2.73;1.10;;;;;;;23.76;37.50;97174.19;6921906;28;20314;-79
2023/10/21 11:11:13;;;;;;;1.07;0.90;;;;;;;23.99;37.53;97164.56;6915540;28;20210;-79
2023/10/21 11:14:36;;;;;;;2.13;0.90;;;;;;;23.27;35.16;97175.59;6909997;28;20766;-80
2023/10/21 11:17:59;;;;;;;0.97;0.80;;;;;;;23.73;35.90;97183.91;6920684;28;20328;-80
2023/10/21 11:21:35;;;;;;;0.70;0.70;;;;;;;23.53;35.43;97176.34;6942393;28;20347;-80
2023/10/21 11:24:56;;;;;;;0.60;0.60;;;;;;;22.80;34.92;97140.84;6921536;28;20224;-80
2023/10/21 11:28:18;;;;;;;0.83;0.63;;;;;;;23.37;34.26;97147.75;6920347;28;20248;-79
2023/10/21 11:31:42;;;;;;;1.37;0.77;;;;;;;23.02;34.37;97143.38;6921945;28;20209;-79
2023/10/21 11:35:05;;;;;;;1.27;0.87;;;;;;;23.11;34.36;97159.88;6917242;28;20332;-78
2023/10/21 11:38:28;;;;;;;4.70;1.77;;;;;;;23.01;34.96;97179.47;6917066;28;20314;-79
2023/10/21 11:41:52;;;;;;;1.10;0.97;;;;;;;23.22;35.13;97169.44;6916696;28;20233;-79
2023/10/21 11:45:14;;;;;;;1.93;0.73;;;;;;;23.31;35.12;97173.00;6914809;28;20207;-79
2023/10/21 11:48:38;;;;;;;1.73;0.87;;;;;;;22.99;35.32;97198.22;6923029;28;20883;-79
2023/10/21 11:52:00;;;;;;;0.87;0.77;;;;;;;22.62;36.30;97188.66;6914622;28;20278;-80
2023/10/21 11:55:38;;;;;;;2.43;0.80;;;;;;;22.54;36.04;97174.91;6929128;28;20859;-80
2023/10/21 12:14:32;;;;;;;0.67;0.50;;;;;;;22.35;35.48;97175.16;6867619;28;20210;-79
2023/10/21 12:18:22;;;;;;;1.50;1.07;;;;;;;23.10;34.84;97205.00;6916037;28;20310;-79
2023/10/21 12:22:20;;;;;;;1.03;0.93;;;;;;;22.92;35.83;97171.22;6916015;28;20224;-79
2023/10/21 12:39:37;;;;;;;1.20;1.00;;;;;;;21.41;38.33;97217.78;7153158;27;20848;-78
2023/10/21 12:43:23;;;;;;;1.07;0.97;;;;;;;21.91;36.81;97222.00;7162528;27;20254;-78
2023/10/21 12:46:47;;;;;;;0.90;0.90;;;;;;;22.69;35.57;97230.19;7162796;27;20326;-78
2023/10/21 12:50:12;;;;;;;0.97;0.97;;;;;;;22.73;36.37;97217.41;7162264;27;20197;-78
2023/10/21 12:53:34;;;;;;;0.70;0.70;;;;;;;22.44;36.67;97236.44;7162119;27;20206;-79
2023/10/21 12:56:56;;;;;;;2.00;1.00;;;;;;;22.31;35.52;97223.59;7162936;27;20316;-78
2023/10/21 13:00:20;;;;;;;1.10;1.00;;;;;;;22.47;36.42;97235.78;7162288;27;20278;-79
2023/10/21 13:03:42;;;;;;;0.80;0.80;;;;;;;23.07;35.09;97228.44;7150917;27;20294;-79
2023/10/21 13:07:04;;;;;;;1.43;1.23;;;;;;;22.93;34.50;97229.75;7145369;27;20229;-78
2023/10/21 13:10:27;;;;;;;1.23;0.97;;;;;;;22.86;34.81;97224.72;7162151;27;20214;-78
2023/10/21 13:13:50;;;;;;;2.10;1.30;;;;;;;22.25;35.68;97230.34;7161926;27;20211;-79
2023/10/21 13:17:13;;;;;;;1.27;1.00;;;;;;;21.91;37.03;97234.91;7161715;27;20326;-78
2023/10/21 13:20:35;;;;;;;1.47;0.90;;;;;;;22.06;36.61;97237.25;7161534;27;20339;-79
2023/10/21 13:23:56;;;;;;;1.03;0.93;;;;;;;22.35;36.05;97234.75;7160871;27;20648;-79
2023/10/21 13:27:18;;;;;;;0.90;0.90;;;;;;;22.37;35.92;97238.00;7161108;27;20218;-79
2023/10/21 13:30:40;;;;;;;1.07;1.00;;;;;;;22.52;36.60;97240.31;7161703;27;20233;-78
2023/10/21 13:34:03;;;;;;;3.73;1.00;;;;;;;22.62;36.13;97194.16;7152102;27;20709;-78
2023/10/21 13:37:25;;;;;;;1.40;1.23;;;;;;;22.71;36.49;97227.13;7151606;27;20222;-79
2023/10/21 13:40:50;;;;;;;2.00;1.13;;;;;;;22.76;36.49;97244.28;7152478;27;20209;-79
2023/10/21 13:44:12;;;;;;;2.00;1.27;;;;;;;22.82;36.08;97234.75;7160490;27;20632;-79
2023/10/21 13:47:33;;;;;;;2.80;1.37;;;;;;;22.81;35.80;97210.31;7135818;27;20301;-79
2023/10/21 13:50:56;;;;;;;1.40;1.30;;;;;;;22.56;35.92;97235.81;7133242;27;20235;-78
2023/10/21 13:54:17;;;;;;;2.60;1.23;;;;;;;22.95;36.18;97236.53;7126354;27;20210;-78
2023/10/21 13:57:39;;;;;;;1.93;1.07;;;;;;;23.12;36.01;97219.25;7139665;27;20690;-78
2023/10/21 14:01:01;;;;;;;1.60;1.50;;;;;;;23.08;36.66;97232.81;7140064;27;20243;-78
2023/10/21 14:04:23;;;;;;;1.37;1.27;;;;;;;23.24;35.99;97234.00;7138640;27;20210;-78
2023/10/21 14:07:46;;;;;;;1.30;1.20;;;;;;;22.82;36.23;97207.25;7140552;27;20224;-78
2023/10/21 14:11:08;;;;;;;2.07;1.40;;;;;;;22.81;35.97;97241.38;7123386;27;20598;-78
2023/10/21 14:14:30;;;;;;;1.77;1.33;;;;;;;22.94;36.26;97234.91;7125630;27;20199;-77
2023/10/21 14:17:51;;;;;;;2.63;1.60;;;;;;;22.93;36.57;97236.06;7129643;27;20270;-78
2023/10/21 14:21:13;;;;;;;2.77;1.60;;;;;;;22.97;37.35;97242.53;7127173;27;20794;-78
2023/10/21 14:24:36;;;;;;;2.93;1.63;;;;;;;23.01;36.85;97231.69;7139461;27;20203;-78
2023/10/21 14:27:57;;;;;;;2.73;1.50;;;;;;;22.39;37.09;97228.31;7140249;27;20362;-78
2023/10/21 14:31:24;;;;;;;2.20;1.60;;;;;;;22.56;38.07;97236.66;7133341;27;20692;-78
2023/10/21 14:34:48;;;;;;;2.03;1.77;;;;;;;22.59;38.22;97232.44;7130968;27;20198;-78
2023/10/21 14:38:10;;;;;;;2.37;2.10;;;;;;;22.84;39.34;97259.16;7139042;27;20268;-78
2023/10/21 14:41:33;;;;;;;3.40;2.60;;;;;;;22.64;39.00;97260.56;7140059;27;20226;-78
2023/10/21 14:44:57;;;;;;;4.90;3.47;;;;;;;22.56;38.69;97266.03;7139833;27;20240;-78
2023/10/21 14:48:19;;;;;;;4.47;3.33;;;;;;;22.54;39.69;97274.59;7131460;27;20581;-78
2023/10/21 14:51:41;;;;;;;2.93;2.47;;;;;;;22.45;39.12;97243.56;7140279;27;20217;-78
2023/10/21 14:55:05;;;;;;;2.90;2.10;;;;;;;22.56;39.36;97266.84;7137266;27;20199;-78
2023/10/21 14:58:28;;;;;;;3.47;2.50;;;;;;;22.65;39.37;97277.88;7139341;27;20230;-78
2023/10/21 15:01:49;;;;;;;4.87;3.37;;;;;;;22.40;39.86;97282.13;7132523;27;20223;-78
2023/10/21 15:05:12;;;;;;;5.57;3.60;;;;;;;22.49;40.19;97276.69;7123285;27;20208;-78
2023/10/21 15:08:34;;;;;;;6.87;3.90;;;;;;;22.40;40.20;97260.16;7135273;27;20232;-78
2023/10/21 15:11:56;;;;;;;5.67;3.70;;;;;;;22.46;40.07;97283.63;7139548;27;20594;-78
2023/10/21 15:15:19;;;;;;;3.97;2.97;;;;;;;22.26;40.37;97294.31;7139734;27;20242;-79
2023/10/21 15:18:40;;;;;;;7.20;2.70;;;;;;;22.35;39.86;97285.00;7139442;27;20307;-78
2023/10/21 15:22:02;;;;;;;4.63;2.80;;;;;;;22.36;39.77;97270.13;7139473;27;20239;-78
2023/10/21 15:25:23;;;;;;;4.50;3.93;;;;;;;22.21;40.85;97281.56;7138626;27;20285;-79
2023/10/21 15:28:45;;;;;;;5.30;3.60;;;;;;;22.09;40.95;97289.56;7139386;27;20203;-78
2023/10/21 15:32:09;;;;;;;5.37;3.43;;;;;;;21.87;42.51;97297.84;7138290;27;20339;-79
2023/10/21 15:35:34;;;;;;;5.17;3.73;;;;;;;21.88;41.71;97293.97;7132021;27;20225;-78
2023/10/21 15:38:55;;;;;;;4.30;3.03;;;;;;;21.84;41.49;97295.69;7131310;27;20198;-78
2023/10/21 15:42:19;;;;;;;2.27;1.97;;;;;;;21.84;38.54;97298.44;7107081;27;20249;-79
2023/10/21 15:45:41;;;;;;;5.10;3.93;;;;;;;21.76;42.68;97274.50;7118268;27;20310;-79
2023/10/21 15:49:05;;;;;;;6.87;4.83;;;;;;;21.73;43.99;97275.13;7137825;27;20252;-79
2023/10/21 15:52:27;;;;;;;9.93;4.60;;;;;;;21.31;46.58;97303.00;7113781;27;20202;-78
2023/10/21 15:56:03;;;;;;;6.97;4.97;;;;;;;21.27;47.00;97293.00;7133904;27;20308;-78
2023/10/21 15:59:25;;;;;;;6.07;4.37;;;;;;;21.25;47.48;97296.03;7022565;28;20239;-78
2023/10/21 16:02:49;;;;;;;8.57;5.30;;;;;;;20.92;48.40;97274.59;7020505;28;20246;-79
2023/10/21 16:06:12;;;;;;;6.73;5.43;;;;;;;20.86;49.06;97318.84;7021511;28;20258;-78
2023/10/21 16:09:34;;;;;;;6.97;4.30;;;;;;;20.67;49.04;97323.59;7021033;28;20197;-77
2023/10/21 16:12:55;;;;;;;6.10;4.80;;;;;;;20.73;48.80;97315.00;7021368;28;20216;-79
2023/10/21 16:16:17;;;;;;;7.87;4.23;;;;;;;20.52;49.58;97312.97;7020655;28;20252;-79
2023/10/21 16:19:38;;;;;;;5.13;3.63;;;;;;;20.58;49.32;97348.16;7025752;28;20234;-79
2023/10/21 16:23:01;;;;;;;4.67;3.50;;;;;;;20.44;49.02;97333.66;7027115;28;20197;-79
2023/10/21 16:26:22;;;;;;;4.90;3.03;;;;;;;20.52;48.72;97345.84;7027550;28;20241;-79